sensor_id;sensor_type;location;lat;lon;timestamp;P1;durP1;ratioP1;P2;durP2;ratioP2
4698;SDS011;33708;49.466;11.176;2023-07-29T00:01:44;5.17;;;2.97;;
4698;SDS011;33708;49.466;11.176;2023-07-29T00:04:10;4.43;;;2.93;;
4698;SDS011;33708;49.466;11.176;2023-07-29T00:06:36;7.97;;;3.03;;
4698;SDS011;33708;49.466;11.176;2023-07-29T00:09:02;7.50;;;3.30;;
4698;SDS011;33708;49.466;11.176;2023-07-29T00:11:28;3.70;;;2.53;;
4698;SDS011;33708;49.466;11.176;2023-07-29T00:13:53;13.37;;;3.70;;
4698;SDS011;33708;49.466;11.176;2023-07-29T00:16:19;3.30;;;2.73;;
4698;SDS011;33708;49.466;11.176;2023-07-29T00:18:48;5.97;;;3.50;;
4698;SDS011;33708;49.466;11.176;2023-07-29T00:21:14;6.83;;;4.30;;
4698;SDS011;33708;49.466;11.176;2023-07-29T00:23:42;6.47;;;3.70;;
4698;SDS011;33708;49.466;11.176;2023-07-29T00:26:08;6.20;;;3.20;;
4698;SDS011;33708;49.466;11.176;2023-07-29T00:28:34;6.40;;;3.60;;
4698;SDS011;33708;49.466;11.176;2023-07-29T00:30:59;5.80;;;3.57;;
4698;SDS011;33708;49.466;11.176;2023-07-29T00:33:25;7.23;;;3.40;;
4698;SDS011;33708;49.466;11.176;2023-07-29T00:35:50;4.80;;;3.30;;
4698;SDS011;33708;49.466;11.176;2023-07-29T00:38:16;4.70;;;2.93;;
4698;SDS011;33708;49.466;11.176;2023-07-29T00:40:42;4.60;;;3.50;;
4698;SDS011;33708;49.466;11.176;2023-07-29T00:43:07;8.43;;;3.37;;
4698;SDS011;33708;49.466;11.176;2023-07-29T00:45:33;6.47;;;3.03;;
4698;SDS011;33708;49.466;11.176;2023-07-29T00:48:00;5.47;;;3.50;;
4698;SDS011;33708;49.466;11.176;2023-07-29T00:50:26;4.53;;;3.53;;
4698;SDS011;33708;49.466;11.176;2023-07-29T00:52:54;5.13;;;3.80;;
4698;SDS011;33708;49.466;11.176;2023-07-29T00:55:20;4.47;;;3.47;;
4698;SDS011;33708;49.466;11.176;2023-07-29T00:57:46;5.50;;;3.30;;
4698;SDS011;33708;49.466;11.176;2023-07-29T01:00:23;5.13;;;3.67;;
4698;SDS011;33708;49.466;11.176;2023-07-29T01:02:50;6.13;;;3.47;;
4698;SDS011;33708;49.466;11.176;2023-07-29T01:05:19;7.13;;;3.67;;
4698;SDS011;33708;49.466;11.176;2023-07-29T01:07:59;9.83;;;4.07;;
4698;SDS011;33708;49.466;11.176;2023-07-29T01:10:46;5.50;;;3.53;;
4698;SDS011;33708;49.466;11.176;2023-07-29T01:16:17;7.50;;;3.60;;
4698;SDS011;33708;49.466;11.176;2023-07-29T01:18:55;4.67;;;3.83;;
4698;SDS011;33708;49.466;11.176;2023-07-29T01:21:23;5.23;;;3.80;;
4698;SDS011;33708;49.466;11.176;2023-07-29T01:23:52;7.00;;;4.50;;
4698;SDS011;33708;49.466;11.176;2023-07-29T01:26:18;5.87;;;3.93;;
4698;SDS011;33708;49.466;11.176;2023-07-29T01:28:44;6.00;;;3.40;;
4698;SDS011;33708;49.466;11.176;2023-07-29T01:31:13;5.60;;;4.03;;
4698;SDS011;33708;49.466;11.176;2023-07-29T01:33:48;5.93;;;4.23;;
4698;SDS011;33708;49.466;11.176;2023-07-29T01:36:21;6.90;;;3.67;;
4698;SDS011;33708;49.466;11.176;2023-07-29T01:38:51;5.57;;;3.83;;
4698;SDS011;33708;49.466;11.176;2023-07-29T01:41:18;5.67;;;4.00;;
4698;SDS011;33708;49.466;11.176;2023-07-29T01:43:46;4.97;;;3.70;;
4698;SDS011;33708;49.466;11.176;2023-07-29T01:46:12;9.40;;;3.93;;
4698;SDS011;33708;49.466;11.176;2023-07-29T01:48:38;5.80;;;4.07;;
4698;SDS011;33708;49.466;11.176;2023-07-29T01:51:05;5.93;;;4.20;;
4698;SDS011;33708;49.466;11.176;2023-07-29T01:53:31;8.30;;;4.27;;
4698;SDS011;33708;49.466;11.176;2023-07-29T01:55:57;7.20;;;4.40;;
4698;SDS011;33708;49.466;11.176;2023-07-29T01:58:23;4.93;;;4.00;;
4698;SDS011;33708;49.466;11.176;2023-07-29T02:00:49;6.20;;;4.43;;
4698;SDS011;33708;49.466;11.176;2023-07-29T02:03:14;7.13;;;4.20;;
4698;SDS011;33708;49.466;11.176;2023-07-29T02:05:40;6.70;;;3.67;;
4698;SDS011;33708;49.466;11.176;2023-07-29T02:08:07;5.90;;;3.50;;
4698;SDS011;33708;49.466;11.176;2023-07-29T02:10:32;10.67;;;4.13;;
4698;SDS011;33708;49.466;11.176;2023-07-29T02:12:58;5.93;;;4.23;;
4698;SDS011;33708;49.466;11.176;2023-07-29T02:15:24;11.67;;;4.63;;
4698;SDS011;33708;49.466;11.176;2023-07-29T02:17:49;5.20;;;4.00;;
4698;SDS011;33708;49.466;11.176;2023-07-29T02:20:16;9.70;;;3.70;;
4698;SDS011;33708;49.466;11.176;2023-07-29T02:22:42;5.93;;;4.10;;
4698;SDS011;33708;49.466;11.176;2023-07-29T02:25:08;7.40;;;5.03;;
4698;SDS011;33708;49.466;11.176;2023-07-29T02:27:34;12.33;;;3.80;;
4698;SDS011;33708;49.466;11.176;2023-07-29T02:30:00;7.47;;;4.40;;
4698;SDS011;33708;49.466;11.176;2023-07-29T02:32:26;5.83;;;4.03;;
4698;SDS011;33708;49.466;11.176;2023-07-29T02:34:52;6.40;;;3.93;;
4698;SDS011;33708;49.466;11.176;2023-07-29T02:37:17;6.60;;;4.60;;
4698;SDS011;33708;49.466;11.176;2023-07-29T02:39:43;5.50;;;3.97;;
4698;SDS011;33708;49.466;11.176;2023-07-29T02:42:09;7.50;;;5.00;;
4698;SDS011;33708;49.466;11.176;2023-07-29T02:44:34;5.57;;;3.87;;
4698;SDS011;33708;49.466;11.176;2023-07-29T02:47:00;7.60;;;4.63;;
4698;SDS011;33708;49.466;11.176;2023-07-29T02:49:25;8.70;;;3.40;;
4698;SDS011;33708;49.466;11.176;2023-07-29T02:51:51;8.23;;;4.20;;
4698;SDS011;33708;49.466;11.176;2023-07-29T02:54:16;9.37;;;4.50;;
4698;SDS011;33708;49.466;11.176;2023-07-29T02:56:42;11.57;;;4.80;;
4698;SDS011;33708;49.466;11.176;2023-07-29T02:59:08;7.63;;;4.63;;
4698;SDS011;33708;49.466;11.176;2023-07-29T03:01:33;7.30;;;4.57;;
4698;SDS011;33708;49.466;11.176;2023-07-29T03:03:59;5.07;;;4.00;;
4698;SDS011;33708;49.466;11.176;2023-07-29T03:06:25;11.50;;;4.60;;
4698;SDS011;33708;49.466;11.176;2023-07-29T03:08:50;6.23;;;4.10;;
4698;SDS011;33708;49.466;11.176;2023-07-29T03:11:16;6.53;;;4.87;;
4698;SDS011;33708;49.466;11.176;2023-07-29T03:13:42;8.63;;;4.63;;
4698;SDS011;33708;49.466;11.176;2023-07-29T03:16:09;7.97;;;5.20;;
4698;SDS011;33708;49.466;11.176;2023-07-29T03:18:36;20.57;;;4.87;;
4698;SDS011;33708;49.466;11.176;2023-07-29T03:21:02;8.17;;;4.53;;
4698;SDS011;33708;49.466;11.176;2023-07-29T03:23:29;7.43;;;4.10;;
4698;SDS011;33708;49.466;11.176;2023-07-29T03:25:56;9.47;;;4.77;;
4698;SDS011;33708;49.466;11.176;2023-07-29T03:28:32;6.00;;;4.20;;
4698;SDS011;33708;49.466;11.176;2023-07-29T03:30:58;9.00;;;5.10;;
4698;SDS011;33708;49.466;11.176;2023-07-29T03:33:24;6.87;;;4.10;;
4698;SDS011;33708;49.466;11.176;2023-07-29T03:35:51;7.27;;;4.77;;
4698;SDS011;33708;49.466;11.176;2023-07-29T03:38:17;7.87;;;5.47;;
4698;SDS011;33708;49.466;11.176;2023-07-29T03:40:43;7.23;;;4.27;;
4698;SDS011;33708;49.466;11.176;2023-07-29T03:43:09;7.80;;;4.27;;
4698;SDS011;33708;49.466;11.176;2023-07-29T03:45:35;6.83;;;3.67;;
4698;SDS011;33708;49.466;11.176;2023-07-29T03:48:01;4.63;;;3.63;;
4698;SDS011;33708;49.466;11.176;2023-07-29T03:50:28;5.60;;;4.37;;
4698;SDS011;33708;49.466;11.176;2023-07-29T03:52:54;7.73;;;3.83;;
4698;SDS011;33708;49.466;11.176;2023-07-29T03:55:21;9.13;;;4.03;;
4698;SDS011;33708;49.466;11.176;2023-07-29T03:57:46;8.10;;;3.63;;
4698;SDS011;33708;49.466;11.176;2023-07-29T04:00:12;6.40;;;4.33;;
4698;SDS011;33708;49.466;11.176;2023-07-29T04:02:38;6.03;;;4.10;;
4698;SDS011;33708;49.466;11.176;2023-07-29T04:05:04;8.80;;;4.97;;
4698;SDS011;33708;49.466;11.176;2023-07-29T04:07:30;6.17;;;4.20;;
4698;SDS011;33708;49.466;11.176;2023-07-29T04:09:56;7.13;;;4.53;;
4698;SDS011;33708;49.466;11.176;2023-07-29T04:12:22;5.97;;;4.17;;
4698;SDS011;33708;49.466;11.176;2023-07-29T04:14:48;6.70;;;5.20;;
4698;SDS011;33708;49.466;11.176;2023-07-29T04:17:13;6.87;;;4.30;;
4698;SDS011;33708;49.466;11.176;2023-07-29T04:19:39;5.60;;;4.00;;
4698;SDS011;33708;49.466;11.176;2023-07-29T04:22:05;4.13;;;3.17;;
4698;SDS011;33708;49.466;11.176;2023-07-29T04:24:30;13.80;;;2.93;;
4698;SDS011;33708;49.466;11.176;2023-07-29T04:26:56;4.20;;;2.73;;
4698;SDS011;33708;49.466;11.176;2023-07-29T04:29:21;4.40;;;2.80;;
4698;SDS011;33708;49.466;11.176;2023-07-29T04:31:50;5.87;;;2.73;;
4698;SDS011;33708;49.466;11.176;2023-07-29T04:34:16;3.70;;;2.70;;
4698;SDS011;33708;49.466;11.176;2023-07-29T04:36:45;4.17;;;2.30;;
4698;SDS011;33708;49.466;11.176;2023-07-29T04:39:11;5.47;;;2.50;;
4698;SDS011;33708;49.466;11.176;2023-07-29T04:41:37;4.07;;;2.90;;
4698;SDS011;33708;49.466;11.176;2023-07-29T04:44:03;4.60;;;2.67;;
4698;SDS011;33708;49.466;11.176;2023-07-29T04:46:28;6.73;;;2.77;;
4698;SDS011;33708;49.466;11.176;2023-07-29T04:48:54;5.20;;;2.70;;
4698;SDS011;33708;49.466;11.176;2023-07-29T04:51:20;7.20;;;2.90;;
4698;SDS011;33708;49.466;11.176;2023-07-29T04:53:45;4.93;;;2.17;;
4698;SDS011;33708;49.466;11.176;2023-07-29T04:56:11;3.30;;;2.10;;
4698;SDS011;33708;49.466;11.176;2023-07-29T04:58:36;5.90;;;2.37;;
4698;SDS011;33708;49.466;11.176;2023-07-29T05:01:02;6.03;;;2.10;;
4698;SDS011;33708;49.466;11.176;2023-07-29T05:03:29;2.93;;;1.90;;
4698;SDS011;33708;49.466;11.176;2023-07-29T05:05:54;4.47;;;2.07;;
4698;SDS011;33708;49.466;11.176;2023-07-29T05:08:21;5.50;;;1.80;;
4698;SDS011;33708;49.466;11.176;2023-07-29T05:10:50;12.10;;;2.20;;
4698;SDS011;33708;49.466;11.176;2023-07-29T05:13:16;6.57;;;2.30;;
4698;SDS011;33708;49.466;11.176;2023-07-29T05:15:42;4.57;;;2.53;;
4698;SDS011;33708;49.466;11.176;2023-07-29T05:18:08;3.97;;;2.20;;
4698;SDS011;33708;49.466;11.176;2023-07-29T05:20:33;3.90;;;2.17;;
4698;SDS011;33708;49.466;11.176;2023-07-29T05:22:59;5.87;;;2.10;;
4698;SDS011;33708;49.466;11.176;2023-07-29T05:25:25;6.23;;;1.97;;
4698;SDS011;33708;49.466;11.176;2023-07-29T05:27:51;4.73;;;2.23;;
4698;SDS011;33708;49.466;11.176;2023-07-29T05:30:17;3.80;;;1.60;;
4698;SDS011;33708;49.466;11.176;2023-07-29T05:32:43;3.63;;;2.20;;
4698;SDS011;33708;49.466;11.176;2023-07-29T05:35:09;4.10;;;1.90;;
4698;SDS011;33708;49.466;11.176;2023-07-29T05:37:37;4.63;;;1.87;;
4698;SDS011;33708;49.466;11.176;2023-07-29T05:40:04;3.53;;;1.80;;
4698;SDS011;33708;49.466;11.176;2023-07-29T05:42:31;3.47;;;2.33;;
4698;SDS011;33708;49.466;11.176;2023-07-29T05:44:57;4.00;;;1.93;;
4698;SDS011;33708;49.466;11.176;2023-07-29T05:47:23;6.43;;;2.27;;
4698;SDS011;33708;49.466;11.176;2023-07-29T05:49:48;3.80;;;2.00;;
4698;SDS011;33708;49.466;11.176;2023-07-29T05:52:14;3.70;;;1.80;;
4698;SDS011;33708;49.466;11.176;2023-07-29T05:54:40;4.07;;;2.10;;
4698;SDS011;33708;49.466;11.176;2023-07-29T05:57:07;3.70;;;1.80;;
4698;SDS011;33708;49.466;11.176;2023-07-29T05:59:36;3.57;;;1.93;;
4698;SDS011;33708;49.466;11.176;2023-07-29T06:02:02;2.83;;;1.67;;
4698;SDS011;33708;49.466;11.176;2023-07-29T06:04:28;4.13;;;2.10;;
4698;SDS011;33708;49.466;11.176;2023-07-29T06:06:53;3.73;;;2.17;;
4698;SDS011;33708;49.466;11.176;2023-07-29T06:09:20;3.20;;;2.00;;
4698;SDS011;33708;49.466;11.176;2023-07-29T06:11:50;7.30;;;2.47;;
4698;SDS011;33708;49.466;11.176;2023-07-29T06:14:16;6.10;;;2.20;;
4698;SDS011;33708;49.466;11.176;2023-07-29T06:16:41;3.87;;;2.30;;
4698;SDS011;33708;49.466;11.176;2023-07-29T06:19:07;9.33;;;2.57;;
4698;SDS011;33708;49.466;11.176;2023-07-29T06:21:33;4.00;;;2.13;;
4698;SDS011;33708;49.466;11.176;2023-07-29T06:23:59;3.80;;;2.43;;
4698;SDS011;33708;49.466;11.176;2023-07-29T06:26:25;9.63;;;2.57;;
4698;SDS011;33708;49.466;11.176;2023-07-29T06:28:51;4.90;;;2.17;;
4698;SDS011;33708;49.466;11.176;2023-07-29T06:31:16;5.57;;;2.60;;
4698;SDS011;33708;49.466;11.176;2023-07-29T06:33:42;7.17;;;2.60;;
4698;SDS011;33708;49.466;11.176;2023-07-29T06:36:08;3.70;;;2.70;;
4698;SDS011;33708;49.466;11.176;2023-07-29T06:38:33;5.60;;;3.03;;
4698;SDS011;33708;49.466;11.176;2023-07-29T06:40:59;7.43;;;2.67;;
4698;SDS011;33708;49.466;11.176;2023-07-29T06:43:24;4.20;;;2.73;;
4698;SDS011;33708;49.466;11.176;2023-07-29T06:45:50;6.33;;;3.00;;
4698;SDS011;33708;49.466;11.176;2023-07-29T06:48:16;5.90;;;2.70;;
4698;SDS011;33708;49.466;11.176;2023-07-29T06:50:43;9.20;;;2.93;;
4698;SDS011;33708;49.466;11.176;2023-07-29T06:53:09;9.00;;;3.10;;
4698;SDS011;33708;49.466;11.176;2023-07-29T06:55:35;6.87;;;2.73;;
4698;SDS011;33708;49.466;11.176;2023-07-29T06:58:00;5.70;;;3.20;;
4698;SDS011;33708;49.466;11.176;2023-07-29T07:00:26;6.50;;;3.40;;
4698;SDS011;33708;49.466;11.176;2023-07-29T07:02:51;10.07;;;3.50;;
4698;SDS011;33708;49.466;11.176;2023-07-29T07:05:17;3.53;;;2.63;;
4698;SDS011;33708;49.466;11.176;2023-07-29T07:07:42;5.70;;;2.60;;
4698;SDS011;33708;49.466;11.176;2023-07-29T07:10:08;5.33;;;2.50;;
4698;SDS011;33708;49.466;11.176;2023-07-29T07:12:34;3.50;;;2.50;;
4698;SDS011;33708;49.466;11.176;2023-07-29T07:15:00;10.83;;;3.20;;
4698;SDS011;33708;49.466;11.176;2023-07-29T07:17:26;8.20;;;3.10;;
4698;SDS011;33708;49.466;11.176;2023-07-29T07:19:51;6.83;;;3.30;;
4698;SDS011;33708;49.466;11.176;2023-07-29T07:22:17;5.53;;;3.13;;
4698;SDS011;33708;49.466;11.176;2023-07-29T07:24:42;7.30;;;3.47;;
4698;SDS011;33708;49.466;11.176;2023-07-29T07:27:09;4.57;;;3.20;;
4698;SDS011;33708;49.466;11.176;2023-07-29T07:29:34;7.47;;;3.10;;
4698;SDS011;33708;49.466;11.176;2023-07-29T07:32:00;5.83;;;3.70;;
4698;SDS011;33708;49.466;11.176;2023-07-29T07:34:25;5.50;;;3.30;;
4698;SDS011;33708;49.466;11.176;2023-07-29T07:36:51;8.70;;;3.13;;
4698;SDS011;33708;49.466;11.176;2023-07-29T07:39:17;9.03;;;2.80;;
4698;SDS011;33708;49.466;11.176;2023-07-29T07:41:42;6.77;;;3.20;;
4698;SDS011;33708;49.466;11.176;2023-07-29T07:44:09;4.97;;;3.10;;
4698;SDS011;33708;49.466;11.176;2023-07-29T07:46:36;6.33;;;2.60;;
4698;SDS011;33708;49.466;11.176;2023-07-29T07:49:01;5.20;;;2.60;;
4698;SDS011;33708;49.466;11.176;2023-07-29T07:51:27;3.70;;;2.50;;
4698;SDS011;33708;49.466;11.176;2023-07-29T07:53:52;4.77;;;2.50;;
4698;SDS011;33708;49.466;11.176;2023-07-29T07:56:18;7.30;;;2.90;;
4698;SDS011;33708;49.466;11.176;2023-07-29T07:58:43;9.60;;;2.27;;
4698;SDS011;33708;49.466;11.176;2023-07-29T08:01:10;4.00;;;2.70;;
4698;SDS011;33708;49.466;11.176;2023-07-29T08:03:36;4.93;;;3.00;;
4698;SDS011;33708;49.466;11.176;2023-07-29T08:06:02;7.40;;;3.23;;
4698;SDS011;33708;49.466;11.176;2023-07-29T08:08:28;5.03;;;3.33;;
4698;SDS011;33708;49.466;11.176;2023-07-29T08:10:54;9.77;;;3.27;;
4698;SDS011;33708;49.466;11.176;2023-07-29T08:13:21;5.73;;;3.83;;
4698;SDS011;33708;49.466;11.176;2023-07-29T08:15:48;6.17;;;3.20;;
4698;SDS011;33708;49.466;11.176;2023-07-29T08:18:14;5.73;;;3.57;;
4698;SDS011;33708;49.466;11.176;2023-07-29T08:20:41;8.63;;;3.67;;
4698;SDS011;33708;49.466;11.176;2023-07-29T08:23:14;5.50;;;3.57;;
4698;SDS011;33708;49.466;11.176;2023-07-29T08:25:40;12.30;;;4.60;;
4698;SDS011;33708;49.466;11.176;2023-07-29T08:28:05;12.70;;;4.50;;
4698;SDS011;33708;49.466;11.176;2023-07-29T08:30:31;14.83;;;4.80;;
4698;SDS011;33708;49.466;11.176;2023-07-29T08:32:56;6.80;;;4.33;;
4698;SDS011;33708;49.466;11.176;2023-07-29T08:35:22;13.30;;;4.90;;
4698;SDS011;33708;49.466;11.176;2023-07-29T08:37:48;7.00;;;4.30;;
4698;SDS011;33708;49.466;11.176;2023-07-29T08:40:13;8.40;;;4.40;;
4698;SDS011;33708;49.466;11.176;2023-07-29T08:42:39;8.20;;;4.20;;
4698;SDS011;33708;49.466;11.176;2023-07-29T08:45:10;9.37;;;4.80;;
4698;SDS011;33708;49.466;11.176;2023-07-29T08:47:36;7.30;;;4.17;;
4698;SDS011;33708;49.466;11.176;2023-07-29T08:50:02;5.70;;;3.80;;
4698;SDS011;33708;49.466;11.176;2023-07-29T08:52:29;6.87;;;4.40;;
4698;SDS011;33708;49.466;11.176;2023-07-29T08:54:57;7.60;;;4.63;;
4698;SDS011;33708;49.466;11.176;2023-07-29T08:57:23;7.93;;;4.40;;
4698;SDS011;33708;49.466;11.176;2023-07-29T08:59:49;6.17;;;2.90;;
4698;SDS011;33708;49.466;11.176;2023-07-29T09:02:15;5.80;;;3.37;;
4698;SDS011;33708;49.466;11.176;2023-07-29T09:04:40;3.87;;;2.37;;
4698;SDS011;33708;49.466;11.176;2023-07-29T09:07:07;7.17;;;3.40;;
4698;SDS011;33708;49.466;11.176;2023-07-29T09:09:33;5.77;;;2.80;;
4698;SDS011;33708;49.466;11.176;2023-07-29T09:11:58;6.53;;;2.83;;
4698;SDS011;33708;49.466;11.176;2023-07-29T09:14:24;4.83;;;3.10;;
4698;SDS011;33708;49.466;11.176;2023-07-29T09:16:50;6.60;;;2.80;;
4698;SDS011;33708;49.466;11.176;2023-07-29T09:19:16;5.13;;;2.90;;
4698;SDS011;33708;49.466;11.176;2023-07-29T09:21:41;5.40;;;3.23;;
4698;SDS011;33708;49.466;11.176;2023-07-29T09:24:07;4.60;;;2.40;;
4698;SDS011;33708;49.466;11.176;2023-07-29T09:26:33;4.50;;;3.20;;
4698;SDS011;33708;49.466;11.176;2023-07-29T09:28:59;4.33;;;3.00;;
4698;SDS011;33708;49.466;11.176;2023-07-29T09:31:26;6.03;;;3.23;;
4698;SDS011;33708;49.466;11.176;2023-07-29T09:33:59;7.70;;;3.50;;
4698;SDS011;33708;49.466;11.176;2023-07-29T09:36:29;4.40;;;3.17;;
4698;SDS011;33708;49.466;11.176;2023-07-29T09:38:57;10.73;;;3.77;;
4698;SDS011;33708;49.466;11.176;2023-07-29T09:41:23;13.10;;;3.50;;
4698;SDS011;33708;49.466;11.176;2023-07-29T09:46:46;6.13;;;3.20;;
4698;SDS011;33708;49.466;11.176;2023-07-29T09:49:12;5.13;;;3.40;;
4698;SDS011;33708;49.466;11.176;2023-07-29T09:51:38;5.50;;;3.20;;
4698;SDS011;33708;49.466;11.176;2023-07-29T09:54:04;4.40;;;3.03;;
4698;SDS011;33708;49.466;11.176;2023-07-29T09:56:30;5.00;;;3.30;;
4698;SDS011;33708;49.466;11.176;2023-07-29T09:58:56;8.03;;;3.27;;
4698;SDS011;33708;49.466;11.176;2023-07-29T10:01:24;6.27;;;3.30;;
4698;SDS011;33708;49.466;11.176;2023-07-29T10:03:50;5.77;;;4.10;;
4698;SDS011;33708;49.466;11.176;2023-07-29T10:06:16;6.40;;;3.50;;
4698;SDS011;33708;49.466;11.176;2023-07-29T10:08:43;5.07;;;3.40;;
4698;SDS011;33708;49.466;11.176;2023-07-29T10:11:09;6.83;;;3.43;;
4698;SDS011;33708;49.466;11.176;2023-07-29T10:13:36;4.43;;;3.40;;
4698;SDS011;33708;49.466;11.176;2023-07-29T10:16:03;7.13;;;3.30;;
4698;SDS011;33708;49.466;11.176;2023-07-29T10:18:30;4.77;;;3.40;;
4698;SDS011;33708;49.466;11.176;2023-07-29T10:20:57;7.07;;;3.67;;
4698;SDS011;33708;49.466;11.176;2023-07-29T10:23:25;4.33;;;3.20;;
4698;SDS011;33708;49.466;11.176;2023-07-29T10:26:02;3.90;;;2.90;;
4698;SDS011;33708;49.466;11.176;2023-07-29T10:28:30;5.73;;;4.03;;
4698;SDS011;33708;49.466;11.176;2023-07-29T10:30:57;5.70;;;3.50;;
4698;SDS011;33708;49.466;11.176;2023-07-29T10:33:24;5.40;;;3.50;;
4698;SDS011;33708;49.466;11.176;2023-07-29T10:35:50;6.93;;;3.50;;
4698;SDS011;33708;49.466;11.176;2023-07-29T10:38:17;7.37;;;3.00;;
4698;SDS011;33708;49.466;11.176;2023-07-29T10:40:44;5.10;;;3.70;;
4698;SDS011;33708;49.466;11.176;2023-07-29T10:43:12;5.10;;;3.00;;
4698;SDS011;33708;49.466;11.176;2023-07-29T10:45:40;7.30;;;3.27;;
4698;SDS011;33708;49.466;11.176;2023-07-29T10:48:13;7.90;;;3.10;;
4698;SDS011;33708;49.466;11.176;2023-07-29T10:54:11;6.63;;;3.70;;
4698;SDS011;33708;49.466;11.176;2023-07-29T10:56:42;4.97;;;3.57;;
4698;SDS011;33708;49.466;11.176;2023-07-29T11:01:50;5.83;;;3.97;;
4698;SDS011;33708;49.466;11.176;2023-07-29T11:15:12;6.00;;;2.30;;
4698;SDS011;33708;49.466;11.176;2023-07-29T11:17:47;4.90;;;2.83;;
4698;SDS011;33708;49.466;11.176;2023-07-29T11:20:15;5.30;;;2.60;;
4698;SDS011;33708;49.466;11.176;2023-07-29T11:22:41;7.60;;;2.40;;
4698;SDS011;33708;49.466;11.176;2023-07-29T11:25:08;4.70;;;2.33;;
4698;SDS011;33708;49.466;11.176;2023-07-29T11:27:36;8.43;;;2.23;;
4698;SDS011;33708;49.466;11.176;2023-07-29T11:30:05;3.40;;;2.00;;
4698;SDS011;33708;49.466;11.176;2023-07-29T11:32:33;4.13;;;1.70;;
4698;SDS011;33708;49.466;11.176;2023-07-29T11:35:04;3.27;;;2.00;;
4698;SDS011;33708;49.466;11.176;2023-07-29T11:37:32;3.90;;;1.83;;
4698;SDS011;33708;49.466;11.176;2023-07-29T11:40:01;7.50;;;2.40;;
4698;SDS011;33708;49.466;11.176;2023-07-29T11:42:28;4.27;;;2.50;;
4698;SDS011;33708;49.466;11.176;2023-07-29T11:44:56;3.30;;;2.10;;
4698;SDS011;33708;49.466;11.176;2023-07-29T11:47:23;6.10;;;2.10;;
4698;SDS011;33708;49.466;11.176;2023-07-29T11:49:49;3.23;;;2.13;;
4698;SDS011;33708;49.466;11.176;2023-07-29T11:52:14;5.40;;;2.17;;
4698;SDS011;33708;49.466;11.176;2023-07-29T11:54:44;6.67;;;1.80;;
4698;SDS011;33708;49.466;11.176;2023-07-29T11:57:09;4.90;;;1.77;;
4698;SDS011;33708;49.466;11.176;2023-07-29T11:59:35;3.97;;;2.63;;
4698;SDS011;33708;49.466;11.176;2023-07-29T12:02:10;5.53;;;2.57;;
4698;SDS011;33708;49.466;11.176;2023-07-29T12:04:38;4.70;;;2.10;;
4698;SDS011;33708;49.466;11.176;2023-07-29T12:07:06;3.63;;;2.47;;
4698;SDS011;33708;49.466;11.176;2023-07-29T12:09:32;3.47;;;2.00;;
4698;SDS011;33708;49.466;11.176;2023-07-29T12:11:59;6.27;;;2.10;;
4698;SDS011;33708;49.466;11.176;2023-07-29T12:14:30;5.13;;;2.10;;
4698;SDS011;33708;49.466;11.176;2023-07-29T12:16:56;3.40;;;1.93;;
4698;SDS011;33708;49.466;11.176;2023-07-29T12:19:30;4.20;;;2.40;;
4698;SDS011;33708;49.466;11.176;2023-07-29T12:22:00;3.97;;;2.53;;
4698;SDS011;33708;49.466;11.176;2023-07-29T12:24:27;3.40;;;1.73;;
4698;SDS011;33708;49.466;11.176;2023-07-29T12:26:54;4.90;;;2.37;;
4698;SDS011;33708;49.466;11.176;2023-07-29T12:29:19;6.50;;;2.70;;
4698;SDS011;33708;49.466;11.176;2023-07-29T12:31:48;7.47;;;2.47;;
4698;SDS011;33708;49.466;11.176;2023-07-29T12:34:21;4.50;;;2.37;;
4698;SDS011;33708;49.466;11.176;2023-07-29T12:36:48;5.50;;;2.20;;
4698;SDS011;33708;49.466;11.176;2023-07-29T12:39:21;5.03;;;2.30;;
4698;SDS011;33708;49.466;11.176;2023-07-29T12:41:49;4.00;;;2.17;;
4698;SDS011;33708;49.466;11.176;2023-07-29T12:44:15;7.33;;;2.27;;
4698;SDS011;33708;49.466;11.176;2023-07-29T12:46:41;3.50;;;2.07;;
4698;SDS011;33708;49.466;11.176;2023-07-29T12:49:07;3.07;;;1.87;;
4698;SDS011;33708;49.466;11.176;2023-07-29T12:51:33;7.47;;;2.23;;
4698;SDS011;33708;49.466;11.176;2023-07-29T12:53:59;7.53;;;1.83;;
4698;SDS011;33708;49.466;11.176;2023-07-29T12:56:25;3.40;;;2.17;;
4698;SDS011;33708;49.466;11.176;2023-07-29T12:58:51;4.83;;;2.20;;
4698;SDS011;33708;49.466;11.176;2023-07-29T13:01:17;4.80;;;2.40;;
4698;SDS011;33708;49.466;11.176;2023-07-29T13:03:46;6.10;;;2.03;;
4698;SDS011;33708;49.466;11.176;2023-07-29T13:06:13;3.20;;;2.10;;
4698;SDS011;33708;49.466;11.176;2023-07-29T13:08:38;3.03;;;1.50;;
4698;SDS011;33708;49.466;11.176;2023-07-29T13:11:04;5.23;;;1.90;;
4698;SDS011;33708;49.466;11.176;2023-07-29T13:13:30;3.80;;;1.80;;
4698;SDS011;33708;49.466;11.176;2023-07-29T13:15:57;3.50;;;1.97;;
4698;SDS011;33708;49.466;11.176;2023-07-29T13:18:22;4.40;;;2.20;;
4698;SDS011;33708;49.466;11.176;2023-07-29T13:20:48;3.93;;;1.83;;
4698;SDS011;33708;49.466;11.176;2023-07-29T13:23:15;3.80;;;1.70;;
4698;SDS011;33708;49.466;11.176;2023-07-29T13:25:40;3.17;;;1.73;;
4698;SDS011;33708;49.466;11.176;2023-07-29T13:28:06;6.40;;;2.10;;
4698;SDS011;33708;49.466;11.176;2023-07-29T13:30:33;3.40;;;1.43;;
4698;SDS011;33708;49.466;11.176;2023-07-29T13:32:59;3.83;;;1.97;;
4698;SDS011;33708;49.466;11.176;2023-07-29T13:35:25;5.13;;;1.80;;
4698;SDS011;33708;49.466;11.176;2023-07-29T13:37:50;3.60;;;2.03;;
4698;SDS011;33708;49.466;11.176;2023-07-29T13:40:16;6.23;;;2.10;;
4698;SDS011;33708;49.466;11.176;2023-07-29T13:42:41;2.67;;;1.80;;
4698;SDS011;33708;49.466;11.176;2023-07-29T13:45:07;7.57;;;1.97;;
4698;SDS011;33708;49.466;11.176;2023-07-29T13:47:33;4.73;;;2.07;;
4698;SDS011;33708;49.466;11.176;2023-07-29T13:50:02;5.57;;;2.20;;
4698;SDS011;33708;49.466;11.176;2023-07-29T13:52:28;4.87;;;2.23;;
4698;SDS011;33708;49.466;11.176;2023-07-29T13:54:54;4.40;;;1.80;;
4698;SDS011;33708;49.466;11.176;2023-07-29T13:57:20;3.00;;;1.37;;
4698;SDS011;33708;49.466;11.176;2023-07-29T13:59:45;3.10;;;1.50;;
4698;SDS011;33708;49.466;11.176;2023-07-29T14:02:11;3.87;;;1.80;;
4698;SDS011;33708;49.466;11.176;2023-07-29T14:04:36;4.20;;;1.93;;
4698;SDS011;33708;49.466;11.176;2023-07-29T14:07:02;3.67;;;1.70;;
4698;SDS011;33708;49.466;11.176;2023-07-29T14:09:28;5.00;;;2.10;;
4698;SDS011;33708;49.466;11.176;2023-07-29T14:11:54;3.23;;;1.70;;
4698;SDS011;33708;49.466;11.176;2023-07-29T14:14:19;2.97;;;1.37;;
4698;SDS011;33708;49.466;11.176;2023-07-29T14:16:45;5.57;;;1.80;;
4698;SDS011;33708;49.466;11.176;2023-07-29T14:19:11;5.20;;;1.90;;
4698;SDS011;33708;49.466;11.176;2023-07-29T14:21:37;2.90;;;1.30;;
4698;SDS011;33708;49.466;11.176;2023-07-29T14:24:03;3.50;;;1.60;;
4698;SDS011;33708;49.466;11.176;2023-07-29T14:26:29;6.10;;;1.70;;
4698;SDS011;33708;49.466;11.176;2023-07-29T14:28:54;3.60;;;1.60;;
4698;SDS011;33708;49.466;11.176;2023-07-29T14:31:20;8.93;;;1.40;;
4698;SDS011;33708;49.466;11.176;2023-07-29T14:33:45;3.90;;;1.70;;
4698;SDS011;33708;49.466;11.176;2023-07-29T14:36:11;5.53;;;1.33;;
4698;SDS011;33708;49.466;11.176;2023-07-29T14:38:37;6.27;;;1.30;;
4698;SDS011;33708;49.466;11.176;2023-07-29T14:41:02;2.63;;;1.47;;
4698;SDS011;33708;49.466;11.176;2023-07-29T14:43:29;2.40;;;1.30;;
4698;SDS011;33708;49.466;11.176;2023-07-29T14:45:55;2.40;;;1.30;;
4698;SDS011;33708;49.466;11.176;2023-07-29T14:48:21;3.53;;;1.37;;
4698;SDS011;33708;49.466;11.176;2023-07-29T14:50:48;3.17;;;1.50;;
4698;SDS011;33708;49.466;11.176;2023-07-29T14:53:13;3.40;;;1.63;;
4698;SDS011;33708;49.466;11.176;2023-07-29T14:55:39;4.63;;;1.80;;
4698;SDS011;33708;49.466;11.176;2023-07-29T14:58:04;2.70;;;1.30;;
4698;SDS011;33708;49.466;11.176;2023-07-29T15:00:30;2.70;;;1.30;;
4698;SDS011;33708;49.466;11.176;2023-07-29T15:02:56;2.40;;;1.20;;
4698;SDS011;33708;49.466;11.176;2023-07-29T15:05:21;2.40;;;1.40;;
4698;SDS011;33708;49.466;11.176;2023-07-29T15:07:48;3.93;;;1.67;;